createdAt,value
2018-04-25T09:20:22.081Z,22.85
2018-04-25T09:20:54.185Z,22.85
2018-04-25T09:21:26.180Z,22.84
2018-04-25T09:21:58.181Z,22.85
2018-04-25T09:22:31.085Z,22.79
2018-04-25T09:23:03.074Z,22.79
2018-04-25T09:23:35.082Z,22.82
2018-04-25T09:24:07.075Z,22.78
2018-04-25T09:24:39.107Z,22.71
2018-04-25T09:25:11.128Z,22.79
2018-04-25T09:25:43.147Z,22.88
2018-04-25T09:26:15.168Z,22.81
2018-04-25T09:26:47.218Z,22.79
2018-04-25T09:27:19.260Z,22.81
2018-04-25T09:27:51.289Z,22.79
2018-04-25T09:28:23.772Z,22.75
2018-04-25T09:28:55.819Z,22.69
2018-04-25T09:29:27.813Z,22.79
2018-04-25T09:30:00.022Z,22.7
2018-04-25T09:30:32.071Z,22.75
2018-04-25T09:31:04.063Z,22.67
2018-04-25T09:31:36.100Z,22.75
2018-04-25T09:32:08.174Z,22.73
2018-04-25T09:32:40.290Z,22.76
2018-04-25T09:33:12.286Z,22.69
2018-04-25T09:33:44.297Z,22.75
2018-04-25T09:34:16.471Z,22.75
2018-04-25T09:34:48.480Z,22.67
2018-04-25T09:35:20.554Z,22.76
2018-04-25T09:35:52.547Z,22.67
2018-04-25T09:36:24.584Z,22.75
2018-04-25T09:36:56.613Z,22.76
2018-04-25T09:37:28.792Z,22.7
2018-04-25T09:38:00.762Z,22.82
2018-04-25T09:38:32.756Z,22.84
2018-04-25T09:39:04.766Z,22.79
2018-04-25T09:39:36.810Z,22.78
2018-04-25T09:40:08.862Z,22.82
2018-04-25T09:40:40.903Z,22.82
2018-04-25T09:41:12.907Z,22.78
2018-04-25T09:41:44.928Z,22.67
2018-04-25T09:42:16.953Z,22.79
2018-04-25T09:42:48.982Z,22.81
2018-04-25T09:43:21.008Z,22.82
2018-04-25T09:43:53.063Z,22.82
2018-04-25T09:44:25.041Z,22.85
2018-04-25T09:44:57.067Z,22.84
2018-04-25T09:45:29.069Z,22.7
2018-04-25T09:46:01.170Z,22.75
2018-04-25T09:46:33.160Z,22.81
2018-04-25T09:47:05.202Z,22.79
2018-04-25T09:47:37.187Z,22.81
2018-04-25T09:48:09.191Z,22.79
2018-04-25T09:48:41.937Z,22.85
2018-04-25T09:49:13.999Z,22.84
2018-04-25T09:49:46.037Z,22.79
2018-04-25T09:50:18.068Z,22.79
2018-04-25T09:50:50.034Z,22.84
2018-04-25T09:51:22.063Z,22.85
2018-04-25T09:51:54.133Z,22.85
2018-04-25T09:52:26.305Z,22.79
2018-04-25T09:52:58.304Z,22.85
2018-04-25T09:53:30.448Z,22.78
2018-04-25T09:54:02.458Z,22.7
2018-04-25T09:54:34.557Z,22.76
2018-04-25T09:55:06.590Z,22.85
2018-04-25T09:55:38.603Z,22.79
2018-04-25T09:56:10.609Z,22.84
2018-04-25T09:56:42.684Z,22.78
2018-04-25T09:57:14.768Z,22.81
2018-04-25T09:57:46.945Z,22.85
2018-04-25T09:58:19.096Z,22.78
2018-04-25T09:58:51.144Z,22.85
2018-04-25T09:59:23.193Z,22.78
2018-04-25T09:59:55.296Z,22.78
2018-04-25T10:00:27.427Z,22.82
2018-04-25T10:00:59.940Z,22.85
2018-04-25T10:01:32.069Z,22.82
2018-04-25T10:02:04.265Z,22.82
2018-04-25T10:02:36.255Z,22.78
2018-04-25T10:03:08.280Z,22.76
2018-04-25T10:03:40.307Z,22.71
2018-04-25T10:04:12.453Z,22.69
2018-04-25T10:04:44.496Z,22.7
2018-04-25T10:05:16.523Z,22.71
2018-04-25T10:05:48.606Z,22.7
2018-04-25T10:06:20.867Z,22.7
2018-04-25T10:06:52.950Z,22.69
2018-04-25T10:07:24.972Z,22.76
2018-04-25T10:07:57.638Z,22.69
2018-04-25T10:08:36.738Z,22.67
2018-04-25T10:09:08.731Z,22.69
2018-04-25T10:09:40.923Z,22.63
2018-04-25T10:10:14.614Z,22.64
2018-04-25T10:10:47.874Z,22.64
2018-04-25T10:11:19.918Z,22.7
2018-04-25T10:11:51.978Z,22.63
2018-04-25T10:12:24.014Z,22.63
2018-04-25T10:12:56.069Z,22.57
2018-04-25T10:13:28.097Z,22.63
2018-04-25T10:14:00.141Z,22.59
2018-04-25T10:14:32.871Z,22.63
2018-04-25T10:15:04.830Z,22.61
2018-04-25T10:15:36.849Z,22.64
2018-04-25T10:16:09.578Z,22.63
2018-04-25T10:16:41.669Z,22.61
2018-04-25T10:17:13.777Z,22.66
2018-04-25T10:17:45.902Z,22.66
2018-04-25T10:18:17.945Z,22.63
2018-04-25T10:18:51.608Z,22.59
2018-04-25T10:19:23.612Z,22.64
2018-04-25T10:19:55.701Z,22.59
2018-04-25T10:20:27.723Z,22.57
2018-04-25T10:20:59.765Z,22.57
2018-04-25T10:21:31.786Z,22.6
2018-04-25T10:22:03.774Z,22.57
2018-04-25T10:22:35.791Z,22.54
2018-04-25T10:23:07.836Z,22.57
2018-04-25T10:23:39.953Z,22.57
2018-04-25T10:24:11.988Z,22.63
2018-04-25T10:24:44.136Z,22.66
2018-04-25T10:25:16.207Z,22.66
2018-04-25T10:25:48.227Z,22.57
2018-04-25T10:26:20.199Z,22.64
2018-04-25T10:26:52.234Z,22.55
2018-04-25T10:27:24.296Z,22.67
2018-04-25T10:27:56.361Z,22.66
2018-04-25T10:28:28.396Z,22.63
2018-04-25T10:29:00.460Z,22.63
2018-04-25T10:29:32.495Z,22.61
2018-04-25T10:30:04.503Z,22.67
2018-04-25T10:30:36.566Z,22.71
2018-04-25T10:31:08.609Z,22.76
2018-04-25T10:31:40.649Z,22.7
2018-04-25T10:32:12.700Z,22.67
2018-04-25T10:32:44.770Z,22.67
2018-04-25T10:33:17.654Z,22.76
2018-04-25T10:33:49.678Z,22.79
2018-04-25T10:34:21.718Z,22.7
2018-04-25T10:34:53.753Z,22.76
2018-04-25T10:35:25.815Z,22.69
2018-04-25T10:35:57.877Z,22.81
2018-04-25T10:36:30.002Z,22.69
2018-04-25T10:37:02.152Z,22.7
2018-04-25T10:37:34.287Z,22.73
2018-04-25T10:38:06.293Z,22.7
2018-04-25T10:38:38.274Z,22.67
2018-04-25T10:39:10.347Z,22.7
2018-04-25T10:39:42.335Z,22.71
2018-04-25T10:40:14.374Z,22.69
2018-04-25T10:40:46.482Z,22.66
2018-04-25T10:41:18.676Z,22.67
2018-04-25T10:41:50.756Z,22.71
2018-04-25T10:42:22.786Z,22.55
2018-04-25T10:42:54.767Z,22.57
2018-04-25T10:43:26.823Z,22.66
2018-04-25T10:43:58.870Z,22.63
2018-04-25T10:44:30.853Z,22.64
2018-04-25T10:45:03.259Z,22.6
2018-04-25T10:45:35.294Z,22.57
2018-04-25T10:46:07.339Z,22.59
2018-04-25T10:46:39.452Z,22.59
2018-04-25T10:47:11.514Z,22.61
2018-04-25T10:47:43.600Z,22.46
2018-04-25T10:48:16.449Z,22.44
2018-04-25T10:48:48.459Z,22.51
2018-04-25T10:49:20.604Z,22.46
2018-04-25T10:49:52.652Z,22.46
2018-04-25T10:50:24.650Z,22.51
2018-04-25T10:50:56.698Z,22.42
2018-04-25T10:51:28.753Z,22.45
2018-04-25T10:52:00.747Z,22.38
2018-04-25T10:52:32.930Z,22.39
2018-04-25T10:53:05.025Z,22.42
2018-04-25T10:53:37.197Z,22.36
2018-04-25T10:54:09.288Z,22.36
2018-04-25T10:54:41.353Z,22.38
2018-04-25T10:55:14.550Z,22.34
2018-04-25T10:55:47.651Z,22.34
2018-04-25T10:56:19.869Z,22.41
2018-04-25T10:56:52.499Z,22.31
2018-04-25T10:57:24.571Z,22.34
2018-04-25T10:57:56.621Z,22.38
2018-04-25T10:58:28.747Z,22.38
2018-04-25T10:59:00.789Z,22.33
2018-04-25T10:59:32.995Z,22.33
2018-04-25T11:00:05.054Z,22.34
2018-04-25T11:00:37.702Z,22.33
2018-04-25T11:01:10.259Z,22.31
2018-04-25T11:01:42.297Z,22.36
2018-04-25T11:02:14.319Z,22.33
2018-04-25T11:02:46.339Z,22.23
2018-04-25T11:03:18.395Z,22.24
2018-04-25T11:03:50.412Z,22.3
2018-04-25T11:04:23.176Z,22.27
2018-04-25T11:04:55.369Z,22.23
2018-04-25T11:05:27.383Z,22.26
2018-04-25T11:05:59.424Z,22.24
2018-04-25T11:06:31.445Z,22.24
2018-04-25T11:07:03.534Z,22.33
2018-04-25T11:07:35.666Z,22.23
2018-04-25T11:08:07.622Z,22.26
2018-04-25T11:08:39.695Z,22.26
2018-04-25T11:09:12.637Z,22.2
2018-04-25T11:09:44.727Z,22.24
2018-04-25T11:10:16.851Z,22.2
2018-04-25T11:10:48.965Z,22.09
2018-04-25T11:11:21.000Z,22.11
2018-04-25T11:11:53.024Z,22.2
2018-04-25T11:12:25.074Z,22.24
2018-04-25T11:12:57.111Z,22.26
2018-04-25T11:13:29.080Z,22.22
2018-04-25T11:14:01.144Z,22.09
2018-04-25T11:14:33.125Z,22.15
2018-04-25T11:15:05.138Z,22.14
2018-04-25T11:15:37.155Z,22.09
2018-04-25T11:16:09.148Z,22.11
2018-04-25T11:16:41.178Z,22.11
2018-04-25T11:17:13.216Z,22.11
2018-04-25T11:17:45.261Z,22.08
2018-04-25T11:18:17.285Z,22.09
2018-04-25T11:18:49.317Z,22.14
2018-04-25T11:19:21.397Z,22.07
2018-04-25T11:19:53.499Z,22.08
2018-04-25T11:20:25.655Z,22.14
2018-04-25T11:20:57.833Z,22.05
2018-04-25T11:21:30.761Z,22.04
2018-04-25T11:22:02.803Z,22.07
2018-04-25T11:22:34.842Z,22
2018-04-25T11:23:06.881Z,21.97
2018-04-25T11:23:38.888Z,22.02
2018-04-25T11:24:10.936Z,22.02
2018-04-25T11:24:42.919Z,21.97
2018-04-25T11:25:14.980Z,21.97
2018-04-25T11:25:47.001Z,21.92
2018-04-25T11:26:19.049Z,21.97
2018-04-25T11:26:51.062Z,21.94
2018-04-25T11:27:23.225Z,21.93
2018-04-25T11:27:55.270Z,21.9
2018-04-25T11:28:27.322Z,21.9
2018-04-25T11:28:59.316Z,21.9
2018-04-25T11:29:31.351Z,21.96
2018-04-25T11:30:03.363Z,21.89
2018-04-25T11:30:35.366Z,21.89
2018-04-25T11:31:07.388Z,21.85
2018-04-25T11:31:39.410Z,21.9
2018-04-25T11:32:11.425Z,21.82
2018-04-25T11:32:43.443Z,21.8
2018-04-25T11:33:15.483Z,21.77
2018-04-25T11:33:47.506Z,21.83
2018-04-25T11:34:19.601Z,21.83
2018-04-25T11:34:51.635Z,21.85
2018-04-25T11:35:23.669Z,21.77
2018-04-25T11:35:55.697Z,21.86
2018-04-25T11:36:27.764Z,21.82
2018-04-25T11:36:59.764Z,21.78
2018-04-25T11:37:31.827Z,21.82
2018-04-25T11:38:03.882Z,21.83
2018-04-25T11:38:36.771Z,21.8
2018-04-25T11:39:08.914Z,21.78
2018-04-25T11:39:40.967Z,21.82
2018-04-25T11:40:13.002Z,21.89
2018-04-25T11:40:45.051Z,21.83
2018-04-25T11:41:17.070Z,21.83
2018-04-25T11:41:49.131Z,21.85
2018-04-25T11:42:21.401Z,21.85
2018-04-25T11:42:53.871Z,21.85
2018-04-25T11:43:25.960Z,21.85
2018-04-25T11:43:58.360Z,21.92
2018-04-25T11:44:30.818Z,21.94
2018-04-25T11:45:03.238Z,21.94
2018-04-25T11:45:35.930Z,21.97
2018-04-25T11:46:09.091Z,22.04
2018-04-25T11:46:41.101Z,21.97
2018-04-25T11:47:13.120Z,21.99
2018-04-25T11:47:45.323Z,22.02
2018-04-25T11:48:17.339Z,22.07
2018-04-25T11:48:49.387Z,22.02
2018-04-25T11:49:21.350Z,22.05
2018-04-25T11:49:53.460Z,21.97
2018-04-25T11:50:25.610Z,22
2018-04-25T11:50:57.608Z,22.08
2018-04-25T11:51:29.659Z,22.07
2018-04-25T11:52:01.664Z,22.05
2018-04-25T11:52:33.748Z,22.04
2018-04-25T11:53:05.756Z,22.02
2018-04-25T11:53:37.883Z,21.97
2018-04-25T11:54:09.930Z,21.99
2018-04-25T11:54:41.974Z,22.02
2018-04-25T11:55:14.020Z,22.02
2018-04-25T11:55:46.039Z,21.96
2018-04-25T11:56:18.224Z,21.92
2018-04-25T11:56:50.319Z,21.94
2018-04-25T11:57:22.521Z,21.94
2018-04-25T11:57:54.577Z,21.92
2018-04-25T11:58:26.661Z,21.96
2018-04-25T11:58:58.735Z,21.89
2018-04-25T11:59:30.787Z,21.93
2018-04-25T12:00:02.890Z,21.93
2018-04-25T12:00:34.956Z,21.93
2018-04-25T12:01:06.996Z,21.92
2018-04-25T12:01:39.067Z,21.78
2018-04-25T12:02:11.049Z,21.89
2018-04-25T12:02:43.064Z,21.85
2018-04-25T12:03:15.133Z,21.86
2018-04-25T12:03:47.164Z,21.9
2018-04-25T12:04:19.226Z,21.85
2018-04-25T12:04:51.272Z,21.89
2018-04-25T12:05:23.323Z,21.85
2018-04-25T12:05:55.367Z,21.83
2018-04-25T12:06:27.375Z,21.9
2018-04-25T12:06:59.440Z,21.9
2018-04-25T12:07:31.498Z,21.78
2018-04-25T12:08:03.533Z,21.78
2018-04-25T12:08:35.565Z,21.8
2018-04-25T12:09:07.932Z,21.78
2018-04-25T12:09:41.115Z,21.82
2018-04-25T12:10:14.589Z,21.73
2018-04-25T12:10:46.661Z,21.76
2018-04-25T12:11:18.658Z,21.71
2018-04-25T12:11:50.691Z,21.78
2018-04-25T12:12:22.705Z,21.76
2018-04-25T12:12:54.741Z,21.76
2018-04-25T12:13:26.858Z,21.66
2018-04-25T12:13:58.932Z,21.73
2018-04-25T12:14:30.980Z,21.76
2018-04-25T12:15:03.009Z,21.73
2018-04-25T12:15:35.014Z,21.7
2018-04-25T12:16:07.006Z,21.78
2018-04-25T12:16:38.995Z,21.68
2018-04-25T12:17:11.089Z,21.64
2018-04-25T12:17:43.116Z,21.62
2018-04-25T12:18:15.161Z,21.67
2018-04-25T12:18:47.252Z,21.62
2018-04-25T12:19:19.330Z,21.64
2018-04-25T12:19:51.397Z,21.61
2018-04-25T12:20:23.436Z,21.59
2018-04-25T12:20:55.501Z,21.61
2018-04-25T12:21:27.570Z,21.66
2018-04-25T12:21:59.706Z,21.66
2018-04-25T12:22:31.814Z,21.61
2018-04-25T12:23:03.833Z,21.66
2018-04-25T12:23:35.884Z,21.64
2018-04-25T12:24:07.845Z,21.49
2018-04-25T12:24:39.892Z,21.52
2018-04-25T12:25:11.993Z,21.51
2018-04-25T12:25:44.017Z,21.52
2018-04-25T12:26:16.106Z,21.48
2018-04-25T12:26:48.113Z,21.53
2018-04-25T12:27:20.152Z,21.58
2018-04-25T12:27:52.217Z,21.49
2018-04-25T12:28:24.370Z,21.53
2018-04-25T12:28:56.672Z,21.55
2018-04-25T12:29:28.740Z,21.46
2018-04-25T12:30:00.761Z,21.58
2018-04-25T12:30:32.852Z,21.45
2018-04-25T12:31:04.948Z,21.48
2018-04-25T12:31:36.988Z,21.49
2018-04-25T12:32:08.988Z,21.45
2018-04-25T12:32:41.080Z,21.45
2018-04-25T12:33:13.173Z,21.49
2018-04-25T12:33:45.211Z,21.49
2018-04-25T12:34:17.226Z,21.46
2018-04-25T12:34:49.246Z,21.45
2018-04-25T12:35:21.283Z,21.49
2018-04-25T12:35:53.483Z,21.4
2018-04-25T12:36:25.747Z,21.48
2018-04-25T12:36:57.766Z,21.46
2018-04-25T12:37:29.771Z,21.41
2018-04-25T12:38:01.811Z,21.51
2018-04-25T12:38:33.871Z,21.46
2018-04-25T12:39:05.878Z,21.49
2018-04-25T12:39:37.919Z,21.43
2018-04-25T12:40:10.721Z,21.45
2018-04-25T12:40:42.744Z,21.51
2018-04-25T12:41:15.702Z,21.46
2018-04-25T12:41:47.719Z,21.49
2018-04-25T12:42:19.746Z,21.49
2018-04-25T12:42:51.761Z,21.46
2018-04-25T12:43:23.789Z,21.53
2018-04-25T12:43:55.871Z,21.45
2018-04-25T12:44:27.957Z,21.58
2018-04-25T12:45:00.830Z,21.52
2018-04-25T12:45:32.887Z,21.61
2018-04-25T12:46:04.906Z,21.48
2018-04-25T12:46:36.952Z,21.58
2018-04-25T12:47:09.079Z,21.58
2018-04-25T12:47:41.251Z,21.51
2018-04-25T12:48:13.230Z,21.53
2018-04-25T12:48:45.308Z,21.46
2018-04-25T12:49:17.391Z,21.52
2018-04-25T12:49:49.474Z,21.48
2018-04-25T12:50:21.543Z,21.49
2018-04-25T12:50:53.628Z,21.67
2018-04-25T12:51:25.644Z,21.66
2018-04-25T12:51:57.714Z,21.62
2018-04-25T12:52:29.743Z,21.67
2018-04-25T12:53:02.585Z,21.61
2018-04-25T12:53:34.590Z,21.68
2018-04-25T12:54:06.703Z,21.64
2018-04-25T12:54:38.659Z,21.62
2018-04-25T12:55:10.756Z,21.7
2018-04-25T12:55:42.771Z,21.59
2018-04-25T12:56:14.840Z,21.64
2018-04-25T12:56:46.819Z,21.67
2018-04-25T12:57:18.849Z,21.66
2018-04-25T12:57:50.873Z,21.59
2018-04-25T12:58:22.909Z,21.68
2018-04-25T12:58:54.965Z,21.73
2018-04-25T12:59:26.983Z,21.71
2018-04-25T12:59:59.116Z,21.76
2018-04-25T13:00:31.151Z,21.77
2018-04-25T13:01:03.177Z,21.7
2018-04-25T13:01:35.250Z,21.82
2018-04-25T13:02:07.358Z,21.8
2018-04-25T13:02:39.472Z,21.9
2018-04-25T13:03:11.508Z,21.96
2018-04-25T13:03:43.552Z,21.9
2018-04-25T13:04:15.569Z,21.96
2018-04-25T13:04:47.573Z,21.94
2018-04-25T13:05:19.581Z,21.94
2018-04-25T13:05:51.635Z,21.99
2018-04-25T13:06:23.624Z,21.99
2018-04-25T13:06:55.668Z,21.96
2018-04-25T13:07:27.690Z,21.94
2018-04-25T13:07:59.815Z,21.97
2018-04-25T13:08:31.923Z,21.94
2018-04-25T13:09:04.234Z,22.02
2018-04-25T13:09:36.495Z,22.04
2018-04-25T13:10:08.991Z,21.97
2018-04-25T13:10:43.321Z,22.05
2018-04-25T13:11:15.499Z,22.11
2018-04-25T13:11:48.467Z,22
2018-04-25T13:12:22.345Z,22.08
2018-04-25T13:12:54.522Z,22.09
2018-04-25T13:13:26.785Z,22.08
2018-04-25T13:13:58.962Z,22.05
2018-04-25T13:14:31.093Z,22.02
2018-04-25T13:15:03.243Z,21.96
2018-04-25T13:15:35.360Z,22.08
2018-04-25T13:16:08.011Z,22.02
2018-04-25T13:16:40.050Z,22.02
2018-04-25T13:17:12.112Z,22.02
2018-04-25T13:17:44.186Z,22.09
2018-04-25T13:18:16.197Z,22.04
2018-04-25T13:18:48.264Z,22.07
2018-04-25T13:19:20.257Z,22.07
2018-04-25T13:19:52.307Z,22.14
2018-04-25T13:20:25.044Z,22.04
2018-04-25T13:20:57.065Z,22.04
2018-04-25T13:21:29.124Z,22
2018-04-25T13:22:01.180Z,22.04
2018-04-25T13:22:33.235Z,22.11
2018-04-25T13:23:05.273Z,22.04
2018-04-25T13:23:37.350Z,22.08
2018-04-25T13:24:09.397Z,21.99
2018-04-25T13:24:41.417Z,21.99
2018-04-25T13:25:14.755Z,22.09
2018-04-25T13:25:48.002Z,22.07
2018-04-25T13:26:21.910Z,22
2018-04-25T13:26:56.546Z,21.97
2018-04-25T13:27:29.110Z,21.94
2018-04-25T13:28:01.171Z,22
2018-04-25T13:28:33.202Z,21.93
2018-04-25T13:29:05.720Z,22.02
2018-04-25T13:29:37.738Z,21.99
2018-04-25T13:30:09.783Z,21.9
2018-04-25T13:30:41.811Z,21.99
2018-04-25T13:31:14.412Z,21.96
2018-04-25T13:31:46.436Z,21.89
2018-04-25T13:32:18.470Z,21.96
2018-04-25T13:32:50.475Z,21.96
2018-04-25T13:33:22.584Z,21.92
2018-04-25T13:33:54.637Z,21.92
2018-04-25T13:34:26.692Z,21.92
2018-04-25T13:34:58.714Z,21.94
2018-04-25T13:35:30.781Z,21.96
2018-04-25T13:36:02.820Z,22
2018-04-25T13:36:34.863Z,21.99
2018-04-25T13:37:06.921Z,21.99
2018-04-25T13:37:38.961Z,21.99
2018-04-25T13:38:11.193Z,21.99
2018-04-25T13:38:43.372Z,22.02
2018-04-25T13:39:15.499Z,22.04
2018-04-25T13:39:47.659Z,22.05
2018-04-25T13:40:22.807Z,22.12
2018-04-25T13:40:54.974Z,22.04
2018-04-25T13:41:26.971Z,22.12
2018-04-25T13:41:58.985Z,22.04
2018-04-25T13:42:31.012Z,22.11
2018-04-25T13:43:03.127Z,22.11
2018-04-25T13:43:35.184Z,22.08
2018-04-25T13:44:07.221Z,22.09
2018-04-25T13:44:39.261Z,22.11
2018-04-25T13:45:11.264Z,22.07
2018-04-25T13:45:43.290Z,22.11
2018-04-25T13:46:15.274Z,22.07
2018-04-25T13:46:47.312Z,22.09
2018-04-25T13:47:19.445Z,22.11
2018-04-25T13:47:51.448Z,22.09
2018-04-25T13:48:24.868Z,22.15
2018-04-25T13:49:06.498Z,22.12
2018-04-25T13:49:38.496Z,22.18
2018-04-25T13:50:10.501Z,22.12
2018-04-25T13:50:42.491Z,22.18
2018-04-25T13:51:14.494Z,22.18
2018-04-25T13:51:46.502Z,22.16
2018-04-25T13:52:18.553Z,22.15
2018-04-25T13:52:50.619Z,22.22
2018-04-25T13:53:22.611Z,22.22
2018-04-25T13:53:54.652Z,22.05
2018-04-25T13:54:26.671Z,22.11
2018-04-25T13:54:58.702Z,22.15
2018-04-25T13:55:30.705Z,22.12
2018-04-25T13:56:02.763Z,22.09
2018-04-25T13:56:34.904Z,22.02
2018-04-25T13:57:06.941Z,22.11
2018-04-25T13:57:38.968Z,22.09
2018-04-25T13:58:11.579Z,22.08
2018-04-25T13:58:43.693Z,22.12
2018-04-25T13:59:15.716Z,22.09
2018-04-25T13:59:47.755Z,22.11
2018-04-25T14:00:19.757Z,22.14
2018-04-25T14:00:51.820Z,22.12
2018-04-25T14:01:23.924Z,22.05
2018-04-25T14:01:55.938Z,22.09
2018-04-25T14:02:27.992Z,22.05
2018-04-25T14:02:59.996Z,22.07
2018-04-25T14:03:32.030Z,22.07
2018-04-25T14:04:04.062Z,22
2018-04-25T14:04:36.145Z,21.99
2018-04-25T14:05:08.132Z,22.02
2018-04-25T14:05:40.155Z,21.93
2018-04-25T14:06:12.560Z,21.97
2018-04-25T14:06:45.182Z,21.99
2018-04-25T14:07:18.015Z,22
2018-04-25T14:07:50.738Z,21.99
2018-04-25T14:08:22.793Z,21.99
2018-04-25T14:08:54.829Z,21.94
2018-04-25T14:09:26.833Z,22
2018-04-25T14:09:58.835Z,21.99
2018-04-25T14:10:31.688Z,21.92
2018-04-25T14:11:03.739Z,22
2018-04-25T14:11:35.793Z,21.97
2018-04-25T14:12:07.823Z,21.96
2018-04-25T14:12:39.841Z,21.94
2018-04-25T14:13:11.852Z,21.96
2018-04-25T14:13:43.919Z,21.96
2018-04-25T14:14:15.976Z,21.92
2018-04-25T14:14:47.998Z,21.94
2018-04-25T14:15:20.042Z,21.9
2018-04-25T14:15:52.039Z,21.89
2018-04-25T14:16:24.087Z,21.9
2018-04-25T14:16:56.104Z,21.94
2018-04-25T14:17:28.197Z,21.97
2018-04-25T14:18:00.227Z,21.86
2018-04-25T14:18:32.257Z,21.92
2018-04-25T14:19:04.279Z,21.96
2018-04-25T14:19:36.962Z,21.9
2018-04-25T14:20:08.991Z,21.77
2018-04-25T14:20:41.032Z,21.82
2018-04-25T14:21:13.112Z,21.85
2018-04-25T14:21:45.107Z,21.8
2018-04-25T14:22:17.150Z,21.89
2018-04-25T14:22:49.234Z,21.9
2018-04-25T14:23:21.268Z,21.74
2018-04-25T14:23:53.295Z,21.85
2018-04-25T14:24:25.304Z,21.83
2018-04-25T14:24:58.080Z,21.92
2018-04-25T14:25:30.060Z,21.83
2018-04-25T14:26:02.206Z,21.93
2018-04-25T14:26:34.215Z,21.85
2018-04-25T14:27:06.187Z,21.89
2018-04-25T14:27:38.233Z,21.92
2018-04-25T14:28:10.229Z,21.96
2018-04-25T14:28:42.253Z,21.9
2018-04-25T14:29:15.280Z,21.86
2018-04-25T14:29:47.268Z,21.89
2018-04-25T14:30:19.347Z,21.96
2018-04-25T14:30:51.403Z,21.96
2018-04-25T14:31:23.406Z,21.89
2018-04-25T14:31:55.427Z,21.9
2018-04-25T14:32:27.487Z,21.89
2018-04-25T14:32:59.485Z,21.97
2018-04-25T14:33:31.505Z,21.94
2018-04-25T14:34:03.530Z,21.92
2018-04-25T14:34:35.614Z,21.92
2018-04-25T14:35:07.603Z,21.94
2018-04-25T14:35:39.628Z,21.97
2018-04-25T14:36:11.627Z,21.97
2018-04-25T14:36:43.675Z,22.02
2018-04-25T14:37:15.724Z,22
2018-04-25T14:37:47.728Z,21.96
2018-04-25T14:38:19.731Z,21.97
2018-04-25T14:38:51.770Z,21.99
2018-04-25T14:39:23.895Z,22
2018-04-25T14:39:56.057Z,21.99
2018-04-25T14:40:28.085Z,21.97
2018-04-25T14:41:00.094Z,22
2018-04-25T14:41:32.143Z,21.96
2018-04-25T14:42:04.199Z,22.02
2018-04-25T14:42:36.228Z,21.97
2018-04-25T14:43:08.220Z,21.96
2018-04-25T14:43:40.235Z,21.97
2018-04-25T14:44:12.992Z,21.96
2018-04-25T14:44:44.992Z,22
2018-04-25T14:45:17.709Z,22
2018-04-25T14:45:49.757Z,22.05
2018-04-25T14:46:21.747Z,22.05
2018-04-25T14:46:53.711Z,22.02
2018-04-25T14:47:25.717Z,22.08
2018-04-25T14:47:57.746Z,22.11
2018-04-25T14:48:29.761Z,22.12
2018-04-25T14:49:01.790Z,22.11
2018-04-25T14:49:33.775Z,22.09
2018-04-25T14:50:05.850Z,22.14
2018-04-25T14:50:37.909Z,22.08
2018-04-25T14:51:09.977Z,22.05
2018-04-25T14:51:41.999Z,22.12
2018-04-25T14:52:14.037Z,22.05
2018-04-25T14:52:46.109Z,22.09
2018-04-25T14:53:18.910Z,22.09
2018-04-25T14:53:50.860Z,22.02
2018-04-25T14:54:22.858Z,22.04
2018-04-25T14:54:54.879Z,22.05
2018-04-25T14:55:26.917Z,22.02
2018-04-25T14:55:58.961Z,22.04
2018-04-25T14:56:31.775Z,22.02
2018-04-25T14:57:03.816Z,22
2018-04-25T14:57:35.881Z,21.97
2018-04-25T14:58:07.942Z,22
2018-04-25T14:58:39.949Z,22.07
2018-04-25T14:59:11.975Z,22.02
2018-04-25T14:59:44.067Z,22.05
2018-04-25T15:00:16.033Z,22.02
2018-04-25T15:00:48.028Z,22.04
2018-04-25T15:01:20.079Z,22.09
2018-04-25T15:01:52.261Z,22.02
2018-04-25T15:02:24.333Z,22.09
2018-04-25T15:02:56.350Z,22.11
2018-04-25T15:03:28.360Z,22.08
2018-04-25T15:04:00.469Z,22.05
2018-04-25T15:04:32.527Z,22.07
2018-04-25T15:05:04.520Z,22.14
2018-04-25T15:05:36.565Z,22.09
2018-04-25T15:06:08.579Z,22.08
2018-04-25T15:06:41.188Z,22.16
2018-04-25T15:07:13.251Z,22.14
2018-04-25T15:07:45.329Z,22.23
2018-04-25T15:08:17.347Z,22.29
2018-04-25T15:08:49.359Z,22.24
2018-04-25T15:09:21.521Z,22.27
2018-04-25T15:09:53.974Z,22.31
2018-04-25T15:10:25.926Z,22.34
2018-04-25T15:10:57.955Z,22.38
2018-04-25T15:11:29.993Z,22.39
2018-04-25T15:12:02.071Z,22.33
2018-04-25T15:12:34.106Z,22.34
2018-04-25T15:13:06.128Z,22.44
2018-04-25T15:13:38.131Z,22.42
2018-04-25T15:14:10.202Z,22.42
2018-04-25T15:14:42.212Z,22.45
2018-04-25T15:15:14.304Z,22.34
2018-04-25T15:15:46.350Z,22.38
2018-04-25T15:16:18.378Z,22.41
2018-04-25T15:16:50.514Z,22.38
2018-04-25T15:17:22.542Z,22.34
2018-04-25T15:17:54.534Z,22.34
2018-04-25T15:18:26.576Z,22.34
2018-04-25T15:18:58.590Z,22.38
2018-04-25T15:19:30.593Z,22.34
2018-04-25T15:20:02.645Z,22.34
2018-04-25T15:20:34.725Z,22.38
2018-04-25T15:21:06.726Z,22.33
2018-04-25T15:21:38.756Z,22.34
2018-04-25T15:22:10.768Z,22.36
2018-04-25T15:22:42.767Z,22.34
2018-04-25T15:23:14.796Z,22.34
2018-04-25T15:23:46.825Z,22.38
2018-04-25T15:27:40.175Z,22.33
2018-04-25T15:28:12.256Z,22.3
2018-04-25T15:28:44.213Z,22.31
2018-04-25T15:29:16.254Z,22.38
2018-04-25T15:29:48.275Z,22.31
2018-04-25T15:30:20.362Z,22.36
2018-04-25T15:30:52.386Z,22.36
2018-04-25T15:31:24.454Z,22.31
2018-04-25T15:31:56.470Z,22.31
2018-04-25T15:32:28.472Z,22.26
2018-04-25T15:33:00.486Z,22.27
2018-04-25T15:33:32.532Z,22.34
2018-04-25T15:34:04.588Z,22.38
2018-04-25T15:34:36.772Z,22.41
2018-04-25T15:35:08.802Z,22.34
2018-04-25T15:35:40.832Z,22.33
2018-04-25T15:36:12.879Z,22.38
2018-04-25T15:36:44.897Z,22.45
2018-04-25T15:37:16.979Z,22.59
2018-04-25T15:37:49.024Z,22.63
2018-04-25T15:38:21.067Z,22.69
2018-04-25T15:38:53.035Z,22.78
2018-04-25T15:39:25.105Z,22.75
2018-04-25T15:39:57.080Z,22.71
2018-04-25T15:40:29.162Z,22.75
2018-04-25T15:41:01.167Z,22.75
2018-04-25T15:41:33.224Z,22.81
2018-04-25T15:42:05.279Z,22.78
2018-04-25T15:42:37.266Z,22.82
2018-04-25T15:43:09.274Z,22.78
2018-04-25T15:43:41.315Z,22.85
2018-04-25T15:44:13.335Z,22.84
2018-04-25T15:44:45.368Z,22.78
2018-04-25T15:45:17.376Z,22.78
2018-04-25T15:45:49.559Z,22.79
2018-04-25T15:46:21.590Z,22.85
2018-04-25T15:46:53.647Z,22.82
2018-04-25T15:47:25.725Z,22.82
2018-04-25T15:47:57.786Z,22.78
2018-04-25T15:48:29.817Z,22.81
2018-04-25T15:49:01.832Z,22.82
2018-04-25T15:49:34.414Z,22.85
2018-04-25T15:50:06.429Z,22.82
2018-04-25T15:50:38.548Z,22.79
2018-04-25T15:51:10.524Z,22.85
2018-04-25T15:51:42.663Z,22.76
2018-04-25T15:52:14.696Z,22.82
2018-04-25T15:52:46.705Z,22.85
2018-04-25T15:53:18.790Z,22.82
2018-04-25T15:53:50.908Z,22.73
2018-04-25T15:54:22.996Z,22.82
2018-04-25T15:54:55.038Z,22.78
2018-04-25T15:55:27.054Z,22.7
2018-04-25T15:55:59.197Z,22.7
2018-04-25T15:56:31.213Z,22.73
2018-04-25T15:57:03.281Z,22.67
2018-04-25T15:57:35.218Z,22.71
2018-04-25T15:58:08.121Z,22.76
2018-04-25T15:58:40.144Z,22.73
2018-04-25T15:59:12.268Z,22.64
2018-04-25T15:59:44.345Z,22.6
2018-04-25T16:00:16.486Z,22.6
2018-04-25T16:00:48.520Z,22.59
2018-04-25T16:01:20.523Z,22.66
2018-04-25T16:01:52.523Z,22.64
2018-04-25T16:02:24.539Z,22.66
2018-04-25T16:02:56.557Z,22.6
2018-04-25T16:03:28.710Z,22.57
2018-04-25T16:04:00.674Z,22.55
2018-04-25T16:04:32.734Z,22.6
2018-04-25T16:05:04.765Z,22.57
2018-04-25T16:05:36.789Z,22.49
2018-04-25T16:06:08.809Z,22.48
2018-04-25T16:06:40.951Z,22.45
2018-04-25T16:07:13.027Z,22.6
2018-04-25T16:07:45.098Z,22.51
2018-04-25T16:08:17.132Z,22.42
2018-04-25T16:08:49.152Z,22.49
2018-04-25T16:09:21.222Z,22.48
2018-04-25T16:09:53.183Z,22.46
2018-04-25T16:10:25.164Z,22.46
2018-04-25T16:10:57.194Z,22.45
2018-04-25T16:11:29.249Z,22.42
2018-04-25T16:12:01.291Z,22.48
2018-04-25T16:12:33.515Z,22.51
2018-04-25T16:13:05.687Z,22.44
2018-04-25T16:13:37.748Z,22.48
2018-04-25T16:14:09.802Z,22.46
2018-04-25T16:14:41.808Z,22.46
2018-04-25T16:15:13.884Z,22.41
2018-04-25T16:15:45.954Z,22.49
2018-04-25T16:16:17.993Z,22.41
2018-04-25T16:16:50.034Z,22.39
2018-04-25T16:17:22.038Z,22.41
2018-04-25T16:17:54.176Z,22.48
2018-04-25T16:18:26.172Z,22.34
2018-04-25T16:18:58.225Z,22.41
2018-04-25T16:19:30.260Z,22.39